Terminal Aerodrome Forecast
Issued by NWS

Home | Current Version | Previous Version | Text Only | Print | Product List | Glossary On
Versions: 1 2 3 4 5 6 7 8 9 10 11 12 13 14 15 16 17 18 19 20 21 22 23 24 25 26 27 28 29 30 31
845
FTUS43 KGRR 250647 AAA
TAFMKG
TAF AMD
KMKG 250647Z 2507/2606 28012G20KT P6SM -SHSN OVC006
      TEMPO 2507/2510 2SM -SHSN OVC004
     FM251000 28010KT 3SM -SHSN OVC004
     FM251400 29014G22KT 3/4SM -SHSN OVC007
     FM251800 29014G26KT 1 1/2SM -SHSN BR OVC010
     FM252000 29017G25KT 4SM -SHSN OVC020=

USA.gov is the U.S. government's official web portal to all federal, state and local government web resources and services.